NKS605 KDFW-KMZJ
Flight info
| Callsign | NKS605 |
|---|---|
| Flight time | 2h 5m |
| Altitude | 28000 |
| Route | WSTEX2 CIKAN BGS SUMMY MOLLY SSO HOTTT SECBO |
| Aircraft | A320/M-SDE3FGHIRWY/LB1 |
Departure
| Time | 2026-05-06 21:26 |
|---|---|
| Airport | Dallas Fort Worth International Airport (KDFW) |
Arrival
| Time | 2026-05-06 23:32 |
|---|---|
| Airport | Pinal Airpark (KMZJ) |
| Time | Latitude | Longitude | Altitude | Speed | Heading |
|---|---|---|---|---|---|
| 2026-05-06 20:55 | 32.88784 | -97.04610 | 628 ft | 0 kts | 51° |
| 2026-05-06 20:57 | 32.88789 | -97.04603 | 630 ft | 0 kts | 52° |
| 2026-05-06 21:21 | 32.88796 | -97.04593 | 625 ft | 4 kts | 45° |
| 2026-05-06 21:21 | 32.88854 | -97.04605 | 623 ft | 11 kts | 324° |
| 2026-05-06 21:21 | 32.88902 | -97.04672 | 623 ft | 9 kts | 279° |
| 2026-05-06 21:22 | 32.88893 | -97.04755 | 625 ft | 11 kts | 228° |
| 2026-05-06 21:22 | 32.88802 | -97.04771 | 620 ft | 15 kts | 182° |
| 2026-05-06 21:22 | 32.88692 | -97.04771 | 621 ft | 15 kts | 180° |
| 2026-05-06 21:22 | 32.88610 | -97.04772 | 616 ft | 13 kts | 180° |
| 2026-05-06 21:23 | 32.88512 | -97.04780 | 623 ft | 15 kts | 200° |
| 2026-05-06 21:23 | 32.88400 | -97.04809 | 620 ft | 18 kts | 180° |
| 2026-05-06 21:23 | 32.88276 | -97.04809 | 623 ft | 18 kts | 180° |
| 2026-05-06 21:23 | 32.88140 | -97.04809 | 618 ft | 20 kts | 180° |
| 2026-05-06 21:24 | 32.88033 | -97.04821 | 619 ft | 8 kts | 236° |
| 2026-05-06 21:24 | 32.88042 | -97.04908 | 616 ft | 13 kts | 283° |
| 2026-05-06 21:24 | 32.88054 | -97.05027 | 623 ft | 15 kts | 271° |
| 2026-05-06 21:24 | 32.88099 | -97.05091 | 622 ft | 7 kts | 0° |
| 2026-05-06 21:25 | 32.88101 | -97.05091 | 621 ft | 0 kts | 0° |
| 2026-05-06 21:26 | 32.88169 | -97.05090 | 618 ft | 36 kts | 1° |
| 2026-05-06 21:26 | 32.88718 | -97.05085 | 623 ft | 116 kts | 360° |
| 2026-05-06 21:26 | 32.89680 | -97.05076 | 944 ft | 146 kts | 2° |
| 2026-05-06 21:26 | 32.90702 | -97.05084 | 1758 ft | 148 kts | 358° |
| 2026-05-06 21:27 | 32.91731 | -97.05115 | 2542 ft | 152 kts | 359° |
| 2026-05-06 21:27 | 32.92861 | -97.05170 | 2994 ft | 173 kts | 359° |
| 2026-05-06 21:27 | 32.94138 | -97.05233 | 3429 ft | 196 kts | 354° |
| 2026-05-06 21:27 | 32.95534 | -97.05721 | 3947 ft | 222 kts | 339° |
| 2026-05-06 21:28 | 32.97063 | -97.06391 | 4636 ft | 244 kts | 338° |
| 2026-05-06 21:28 | 32.98137 | -97.06859 | 5247 ft | 251 kts | 335° |
| 2026-05-06 21:28 | 32.99619 | -97.07954 | 6272 ft | 253 kts | 312° |
| 2026-05-06 21:28 | 33.00626 | -97.09654 | 7317 ft | 252 kts | 290° |
| 2026-05-06 21:29 | 33.01001 | -97.11676 | 8350 ft | 253 kts | 268° |
| 2026-05-06 21:29 | 33.00893 | -97.13777 | 9414 ft | 255 kts | 264° |
| 2026-05-06 21:29 | 33.00761 | -97.15900 | 10436 ft | 259 kts | 263° |
| 2026-05-06 21:29 | 33.00608 | -97.18065 | 11279 ft | 269 kts | 262° |
| 2026-05-06 21:30 | 33.00391 | -97.20377 | 11694 ft | 293 kts | 261° |
| 2026-05-06 21:30 | 33.00057 | -97.22864 | 12035 ft | 315 kts | 253° |
| 2026-05-06 21:30 | 32.99132 | -97.25261 | 12687 ft | 325 kts | 237° |
| 2026-05-06 21:30 | 32.97752 | -97.27421 | 13578 ft | 328 kts | 233° |
| 2026-05-06 21:31 | 32.96352 | -97.29572 | 14442 ft | 329 kts | 233° |
| 2026-05-06 21:31 | 32.94956 | -97.31726 | 15297 ft | 329 kts | 234° |
| 2026-05-06 21:31 | 32.93561 | -97.33883 | 16168 ft | 328 kts | 234° |
| 2026-05-06 21:31 | 32.92170 | -97.36035 | 17056 ft | 328 kts | 234° |
| 2026-05-06 21:32 | 32.90776 | -97.38189 | 17956 ft | 328 kts | 234° |
| 2026-05-06 21:32 | 32.87984 | -97.42491 | 19553 ft | 330 kts | 234° |
| 2026-05-06 21:32 | 32.86576 | -97.44659 | 20294 ft | 333 kts | 234° |
| 2026-05-06 21:33 | 32.85151 | -97.46852 | 21008 ft | 337 kts | 234° |
| 2026-05-06 21:33 | 32.83710 | -97.49067 | 21681 ft | 340 kts | 234° |
| 2026-05-06 21:33 | 32.82254 | -97.51301 | 22319 ft | 344 kts | 235° |
| 2026-05-06 21:33 | 32.80782 | -97.53555 | 22944 ft | 347 kts | 235° |
| 2026-05-06 21:34 | 32.79295 | -97.55832 | 23544 ft | 350 kts | 235° |
| 2026-05-06 21:34 | 32.77794 | -97.58134 | 24050 ft | 353 kts | 235° |
| 2026-05-06 21:34 | 32.76284 | -97.60447 | 24557 ft | 355 kts | 235° |
| 2026-05-06 21:34 | 32.74762 | -97.62773 | 25061 ft | 357 kts | 235° |
| 2026-05-06 21:35 | 32.73233 | -97.65106 | 25553 ft | 359 kts | 235° |
| 2026-05-06 21:35 | 32.71697 | -97.67448 | 26028 ft | 361 kts | 235° |
| 2026-05-06 21:35 | 32.70150 | -97.69807 | 26513 ft | 363 kts | 235° |
| 2026-05-06 21:35 | 32.68766 | -97.72305 | 26974 ft | 363 kts | 243° |
| 2026-05-06 21:36 | 32.67842 | -97.75099 | 27475 ft | 365 kts | 253° |
| 2026-05-06 21:36 | 32.67416 | -97.78089 | 27892 ft | 371 kts | 261° |
| 2026-05-06 21:36 | 32.67175 | -97.81137 | 27988 ft | 371 kts | 261° |
| 2026-05-06 21:36 | 32.66944 | -97.84193 | 28003 ft | 373 kts | 261° |
| 2026-05-06 21:37 | 32.66490 | -97.90285 | 28006 ft | 373 kts | 261° |
| 2026-05-06 21:37 | 32.66015 | -97.96428 | 28005 ft | 374 kts | 261° |
| 2026-05-06 21:38 | 32.65528 | -98.02557 | 28010 ft | 373 kts | 261° |
| 2026-05-06 21:38 | 32.65040 | -98.08691 | 28010 ft | 374 kts | 260° |
| 2026-05-06 21:39 | 32.64551 | -98.14832 | 28005 ft | 374 kts | 260° |
| 2026-05-06 21:39 | 32.64056 | -98.20966 | 28002 ft | 374 kts | 260° |
| 2026-05-06 21:40 | 32.63560 | -98.27101 | 28001 ft | 374 kts | 260° |
| 2026-05-06 21:40 | 32.63062 | -98.33235 | 27996 ft | 374 kts | 260° |
| 2026-05-06 21:41 | 32.62813 | -98.36307 | 27992 ft | 374 kts | 260° |
| 2026-05-06 21:41 | 32.62563 | -98.39375 | 27989 ft | 374 kts | 260° |
| 2026-05-06 21:41 | 32.62314 | -98.42442 | 27986 ft | 374 kts | 260° |
| 2026-05-06 21:41 | 32.62065 | -98.45513 | 27979 ft | 374 kts | 260° |
| 2026-05-06 21:42 | 32.61814 | -98.48578 | 27984 ft | 374 kts | 260° |
| 2026-05-06 21:42 | 32.61559 | -98.51646 | 27982 ft | 374 kts | 260° |
| 2026-05-06 21:42 | 32.61302 | -98.54711 | 27985 ft | 374 kts | 260° |
| 2026-05-06 21:42 | 32.61042 | -98.57776 | 27987 ft | 374 kts | 260° |
| 2026-05-06 21:43 | 32.60786 | -98.60844 | 27991 ft | 374 kts | 260° |
| 2026-05-06 21:43 | 32.60528 | -98.63910 | 27993 ft | 374 kts | 260° |
| 2026-05-06 21:43 | 32.60268 | -98.66973 | 27995 ft | 374 kts | 260° |
| 2026-05-06 21:43 | 32.60012 | -98.70040 | 27999 ft | 374 kts | 260° |
| 2026-05-06 21:44 | 32.59762 | -98.73063 | 27997 ft | 374 kts | 260° |
| 2026-05-06 21:44 | 32.59503 | -98.76174 | 28000 ft | 374 kts | 260° |
| 2026-05-06 21:44 | 32.59248 | -98.79195 | 27999 ft | 373 kts | 259° |
| 2026-05-06 21:44 | 32.58985 | -98.82260 | 28001 ft | 373 kts | 259° |
| 2026-05-06 21:45 | 32.58453 | -98.88389 | 28004 ft | 374 kts | 259° |
| 2026-05-06 21:45 | 32.57921 | -98.94519 | 28010 ft | 374 kts | 259° |
| 2026-05-06 21:46 | 32.57392 | -99.00653 | 28009 ft | 373 kts | 259° |
| 2026-05-06 21:46 | 32.56868 | -99.06776 | 28007 ft | 373 kts | 259° |
| 2026-05-06 21:47 | 32.56331 | -99.12890 | 28002 ft | 373 kts | 259° |
| 2026-05-06 21:47 | 32.56059 | -99.15946 | 27999 ft | 373 kts | 259° |
| 2026-05-06 21:47 | 32.55787 | -99.18999 | 27999 ft | 372 kts | 259° |
| 2026-05-06 21:48 | 32.55516 | -99.22054 | 27996 ft | 373 kts | 259° |
| 2026-05-06 21:48 | 32.55244 | -99.25105 | 27994 ft | 372 kts | 259° |
| 2026-05-06 21:48 | 32.54972 | -99.28159 | 27992 ft | 372 kts | 259° |
| 2026-05-06 21:48 | 32.54699 | -99.31209 | 27997 ft | 372 kts | 259° |
| 2026-05-06 21:49 | 32.54431 | -99.34261 | 27999 ft | 372 kts | 260° |
| 2026-05-06 21:49 | 32.54214 | -99.37323 | 27999 ft | 373 kts | 261° |
| 2026-05-06 21:49 | 32.53878 | -99.43461 | 28008 ft | 373 kts | 261° |
| 2026-05-06 21:50 | 32.53550 | -99.49602 | 28017 ft | 373 kts | 261° |
| 2026-05-06 21:50 | 32.53187 | -99.55730 | 28025 ft | 373 kts | 261° |
| 2026-05-06 21:51 | 32.52801 | -99.61848 | 28031 ft | 372 kts | 261° |
| 2026-05-06 21:51 | 32.52420 | -99.67963 | 28034 ft | 372 kts | 261° |
| 2026-05-06 21:52 | 32.52043 | -99.74066 | 28034 ft | 371 kts | 261° |
| 2026-05-06 21:52 | 32.51672 | -99.80163 | 28016 ft | 371 kts | 261° |
| 2026-05-06 21:53 | 32.51292 | -99.86253 | 28016 ft | 370 kts | 261° |
| 2026-05-06 21:53 | 32.50897 | -99.92332 | 28011 ft | 370 kts | 261° |
| 2026-05-06 21:54 | 32.50511 | -99.98369 | 28003 ft | 370 kts | 261° |
| 2026-05-06 21:54 | 32.50318 | -100.01403 | 27998 ft | 369 kts | 261° |
| 2026-05-06 21:54 | 32.50123 | -100.04434 | 27992 ft | 369 kts | 260° |
| 2026-05-06 21:55 | 32.49927 | -100.07464 | 27986 ft | 369 kts | 260° |
| 2026-05-06 21:55 | 32.49730 | -100.10494 | 27980 ft | 369 kts | 260° |
| 2026-05-06 21:55 | 32.49533 | -100.13519 | 27976 ft | 369 kts | 260° |
| 2026-05-06 21:55 | 32.49334 | -100.16546 | 27994 ft | 369 kts | 260° |
| 2026-05-06 21:56 | 32.48935 | -100.22602 | 28014 ft | 369 kts | 260° |
| 2026-05-06 21:56 | 32.48528 | -100.28659 | 28033 ft | 369 kts | 260° |
| 2026-05-06 21:57 | 32.48111 | -100.34711 | 28057 ft | 369 kts | 260° |
| 2026-05-06 21:57 | 32.47636 | -100.40754 | 28066 ft | 368 kts | 259° |
| 2026-05-06 21:58 | 32.47140 | -100.46782 | 28069 ft | 368 kts | 259° |
| 2026-05-06 21:58 | 32.46642 | -100.52814 | 28073 ft | 368 kts | 259° |
| 2026-05-06 21:59 | 32.46147 | -100.58844 | 28064 ft | 368 kts | 259° |
| 2026-05-06 21:59 | 32.45660 | -100.64870 | 28044 ft | 368 kts | 259° |
| 2026-05-06 22:00 | 32.45171 | -100.70888 | 28015 ft | 367 kts | 259° |
| 2026-05-06 22:00 | 32.44677 | -100.76893 | 27991 ft | 367 kts | 259° |
| 2026-05-06 22:01 | 32.44428 | -100.79894 | 27975 ft | 367 kts | 259° |
| 2026-05-06 22:01 | 32.44177 | -100.82896 | 27967 ft | 366 kts | 259° |
| 2026-05-06 22:01 | 32.43926 | -100.85898 | 27970 ft | 366 kts | 259° |
| 2026-05-06 22:01 | 32.43676 | -100.88897 | 27962 ft | 366 kts | 259° |
| 2026-05-06 22:02 | 32.43429 | -100.91894 | 27963 ft | 366 kts | 259° |
| 2026-05-06 22:02 | 32.43180 | -100.94893 | 27962 ft | 366 kts | 259° |
| 2026-05-06 22:02 | 32.42928 | -100.97888 | 27960 ft | 366 kts | 259° |
| 2026-05-06 22:02 | 32.42673 | -101.00882 | 27959 ft | 366 kts | 259° |
| 2026-05-06 22:03 | 32.42417 | -101.03879 | 27954 ft | 366 kts | 259° |
| 2026-05-06 22:03 | 32.42161 | -101.06873 | 27949 ft | 366 kts | 259° |
| 2026-05-06 22:03 | 32.41906 | -101.09871 | 27940 ft | 366 kts | 259° |
| 2026-05-06 22:03 | 32.41651 | -101.12869 | 27930 ft | 366 kts | 259° |
| 2026-05-06 22:04 | 32.41394 | -101.15870 | 27926 ft | 366 kts | 259° |
| 2026-05-06 22:04 | 32.41136 | -101.18869 | 27917 ft | 367 kts | 259° |
| 2026-05-06 22:04 | 32.40877 | -101.21872 | 27924 ft | 367 kts | 259° |
| 2026-05-06 22:04 | 32.40618 | -101.24877 | 27929 ft | 367 kts | 259° |
| 2026-05-06 22:05 | 32.40358 | -101.27882 | 27928 ft | 367 kts | 259° |
| 2026-05-06 22:05 | 32.40096 | -101.30889 | 27935 ft | 367 kts | 259° |
| 2026-05-06 22:05 | 32.39835 | -101.33894 | 27942 ft | 367 kts | 259° |
| 2026-05-06 22:05 | 32.39572 | -101.36903 | 27943 ft | 368 kts | 259° |
| 2026-05-06 22:06 | 32.39305 | -101.39912 | 27948 ft | 368 kts | 259° |
| 2026-05-06 22:06 | 32.39040 | -101.42882 | 27954 ft | 368 kts | 259° |
| 2026-05-06 22:06 | 32.38774 | -101.45893 | 27957 ft | 368 kts | 259° |
| 2026-05-06 22:06 | 32.38510 | -101.48908 | 27956 ft | 369 kts | 259° |
| 2026-05-06 22:07 | 32.38262 | -101.51931 | 27959 ft | 369 kts | 260° |
| 2026-05-06 22:07 | 32.38028 | -101.54957 | 27960 ft | 370 kts | 260° |
| 2026-05-06 22:07 | 32.37798 | -101.57989 | 27960 ft | 370 kts | 260° |
| 2026-05-06 22:07 | 32.37570 | -101.61022 | 27958 ft | 370 kts | 260° |
| 2026-05-06 22:08 | 32.37341 | -101.64056 | 27953 ft | 370 kts | 260° |
| 2026-05-06 22:08 | 32.37107 | -101.67088 | 27953 ft | 370 kts | 260° |
| 2026-05-06 22:08 | 32.36870 | -101.70121 | 27946 ft | 370 kts | 260° |
| 2026-05-06 22:08 | 32.36631 | -101.73151 | 27939 ft | 370 kts | 260° |
| 2026-05-06 22:09 | 32.36390 | -101.76179 | 27936 ft | 370 kts | 260° |
| 2026-05-06 22:09 | 32.36150 | -101.79211 | 27932 ft | 370 kts | 260° |
| 2026-05-06 22:09 | 32.35908 | -101.82245 | 27927 ft | 371 kts | 260° |
| 2026-05-06 22:09 | 32.35663 | -101.85281 | 27916 ft | 371 kts | 260° |
| 2026-05-06 22:10 | 32.35418 | -101.88321 | 27909 ft | 371 kts | 260° |
| 2026-05-06 22:10 | 32.35173 | -101.91358 | 27905 ft | 371 kts | 260° |
| 2026-05-06 22:10 | 32.34930 | -101.94391 | 27906 ft | 371 kts | 260° |
| 2026-05-06 22:10 | 32.34687 | -101.97427 | 27910 ft | 371 kts | 260° |
| 2026-05-06 22:11 | 32.34442 | -102.00466 | 27909 ft | 371 kts | 260° |
| 2026-05-06 22:11 | 32.34197 | -102.03499 | 27914 ft | 371 kts | 260° |
| 2026-05-06 22:11 | 32.33949 | -102.06538 | 27919 ft | 371 kts | 260° |
| 2026-05-06 22:11 | 32.33700 | -102.09574 | 27920 ft | 371 kts | 260° |
| 2026-05-06 22:12 | 32.33451 | -102.12612 | 27923 ft | 371 kts | 260° |
| 2026-05-06 22:12 | 32.33202 | -102.15651 | 27930 ft | 371 kts | 260° |
| 2026-05-06 22:12 | 32.32954 | -102.18686 | 27936 ft | 371 kts | 260° |
| 2026-05-06 22:12 | 32.32705 | -102.21723 | 27936 ft | 371 kts | 260° |
| 2026-05-06 22:13 | 32.32455 | -102.24757 | 27936 ft | 371 kts | 260° |
| 2026-05-06 22:13 | 32.32204 | -102.27785 | 27939 ft | 370 kts | 260° |
| 2026-05-06 22:13 | 32.31952 | -102.30813 | 27938 ft | 370 kts | 260° |
| 2026-05-06 22:13 | 32.31700 | -102.33835 | 27934 ft | 370 kts | 260° |
| 2026-05-06 22:14 | 32.31446 | -102.36857 | 27932 ft | 369 kts | 260° |
| 2026-05-06 22:14 | 32.31194 | -102.39880 | 27936 ft | 369 kts | 260° |
| 2026-05-06 22:14 | 32.30940 | -102.42895 | 27935 ft | 368 kts | 260° |
| 2026-05-06 22:14 | 32.30684 | -102.45906 | 27932 ft | 368 kts | 260° |
| 2026-05-06 22:15 | 32.30429 | -102.48918 | 27933 ft | 368 kts | 260° |
| 2026-05-06 22:15 | 32.30174 | -102.51921 | 27932 ft | 367 kts | 260° |
| 2026-05-06 22:15 | 32.29915 | -102.54920 | 27923 ft | 367 kts | 260° |
| 2026-05-06 22:15 | 32.29654 | -102.57927 | 27916 ft | 367 kts | 260° |
| 2026-05-06 22:16 | 32.29397 | -102.60918 | 27914 ft | 366 kts | 260° |
| 2026-05-06 22:16 | 32.29226 | -102.62905 | 27912 ft | 366 kts | 260° |
| 2026-05-06 22:16 | 32.28969 | -102.65899 | 27898 ft | 366 kts | 260° |
| 2026-05-06 22:16 | 32.28714 | -102.68893 | 27893 ft | 366 kts | 260° |
| 2026-05-06 22:17 | 32.28456 | -102.71884 | 27894 ft | 366 kts | 260° |
| 2026-05-06 22:17 | 32.28193 | -102.74868 | 27886 ft | 365 kts | 260° |
| 2026-05-06 22:17 | 32.27930 | -102.77859 | 27888 ft | 365 kts | 260° |
| 2026-05-06 22:17 | 32.27669 | -102.80844 | 27875 ft | 365 kts | 260° |
| 2026-05-06 22:18 | 32.27405 | -102.83827 | 27868 ft | 365 kts | 260° |
| 2026-05-06 22:18 | 32.27140 | -102.86805 | 27878 ft | 365 kts | 260° |
| 2026-05-06 22:18 | 32.26876 | -102.89789 | 27873 ft | 365 kts | 260° |
| 2026-05-06 22:18 | 32.26617 | -102.92774 | 27869 ft | 365 kts | 260° |
| 2026-05-06 22:19 | 32.26360 | -102.95749 | 27862 ft | 365 kts | 260° |
| 2026-05-06 22:19 | 32.26096 | -102.98737 | 27856 ft | 365 kts | 259° |
| 2026-05-06 22:20 | 32.24960 | -103.11335 | 27842 ft | 365 kts | 259° |
| 2026-05-06 22:20 | 32.24692 | -103.14316 | 27836 ft | 365 kts | 259° |
| 2026-05-06 22:20 | 32.24425 | -103.17294 | 27824 ft | 365 kts | 259° |
| 2026-05-06 22:21 | 32.24158 | -103.20279 | 27835 ft | 365 kts | 259° |
| 2026-05-06 22:21 | 32.23886 | -103.23258 | 27832 ft | 365 kts | 259° |
| 2026-05-06 22:21 | 32.23610 | -103.26238 | 27835 ft | 365 kts | 259° |
| 2026-05-06 22:21 | 32.23334 | -103.29218 | 27825 ft | 365 kts | 259° |
| 2026-05-06 22:22 | 32.23060 | -103.32204 | 27825 ft | 366 kts | 259° |
| 2026-05-06 22:22 | 32.22788 | -103.35190 | 27824 ft | 366 kts | 259° |
| 2026-05-06 22:22 | 32.22517 | -103.38174 | 27830 ft | 366 kts | 259° |
| 2026-05-06 22:22 | 32.22244 | -103.41164 | 27829 ft | 366 kts | 259° |
| 2026-05-06 22:23 | 32.21964 | -103.44152 | 27822 ft | 366 kts | 259° |
| 2026-05-06 22:23 | 32.21683 | -103.47136 | 27829 ft | 366 kts | 259° |
| 2026-05-06 22:23 | 32.21405 | -103.50128 | 27821 ft | 366 kts | 259° |
| 2026-05-06 22:23 | 32.21129 | -103.53116 | 27823 ft | 366 kts | 259° |
| 2026-05-06 22:24 | 32.20857 | -103.56102 | 27835 ft | 366 kts | 259° |
| 2026-05-06 22:24 | 32.20580 | -103.59088 | 27855 ft | 366 kts | 259° |
| 2026-05-06 22:24 | 32.20297 | -103.62073 | 27848 ft | 366 kts | 259° |
| 2026-05-06 22:24 | 32.20009 | -103.65064 | 27844 ft | 366 kts | 259° |
| 2026-05-06 22:25 | 32.19725 | -103.68051 | 27846 ft | 366 kts | 259° |
| 2026-05-06 22:25 | 32.19446 | -103.71036 | 27862 ft | 366 kts | 259° |
| 2026-05-06 22:25 | 32.19165 | -103.74025 | 27854 ft | 366 kts | 259° |
| 2026-05-06 22:25 | 32.18880 | -103.77015 | 27850 ft | 366 kts | 259° |
| 2026-05-06 22:26 | 32.18595 | -103.80000 | 27853 ft | 366 kts | 259° |
| 2026-05-06 22:26 | 32.18309 | -103.82982 | 27863 ft | 366 kts | 259° |
| 2026-05-06 22:26 | 32.18020 | -103.85969 | 27856 ft | 366 kts | 259° |
| 2026-05-06 22:26 | 32.17730 | -103.88959 | 27852 ft | 366 kts | 259° |
| 2026-05-06 22:27 | 32.17441 | -103.91945 | 27857 ft | 366 kts | 259° |
| 2026-05-06 22:27 | 32.17159 | -103.94890 | 27866 ft | 366 kts | 259° |
| 2026-05-06 22:27 | 32.16873 | -103.97880 | 27870 ft | 366 kts | 259° |
| 2026-05-06 22:27 | 32.16585 | -104.00866 | 27877 ft | 366 kts | 259° |
| 2026-05-06 22:28 | 32.16294 | -104.03855 | 27883 ft | 366 kts | 259° |
| 2026-05-06 22:28 | 32.16004 | -104.06839 | 27891 ft | 366 kts | 259° |
| 2026-05-06 22:28 | 32.15716 | -104.09822 | 27898 ft | 366 kts | 259° |
| 2026-05-06 22:28 | 32.15425 | -104.12804 | 27893 ft | 366 kts | 259° |
| 2026-05-06 22:29 | 32.15129 | -104.15784 | 27917 ft | 366 kts | 259° |
| 2026-05-06 22:29 | 32.14831 | -104.18764 | 27933 ft | 366 kts | 259° |
| 2026-05-06 22:29 | 32.14533 | -104.21749 | 27926 ft | 366 kts | 259° |
| 2026-05-06 22:29 | 32.14237 | -104.24731 | 27917 ft | 366 kts | 259° |
| 2026-05-06 22:30 | 32.14039 | -104.26710 | 27913 ft | 366 kts | 259° |
| 2026-05-06 22:30 | 32.13641 | -104.30702 | 27896 ft | 366 kts | 259° |
| 2026-05-06 22:30 | 32.13347 | -104.33690 | 27884 ft | 366 kts | 259° |
| 2026-05-06 22:30 | 32.13050 | -104.36677 | 27885 ft | 367 kts | 259° |
| 2026-05-06 22:31 | 32.12750 | -104.39660 | 27890 ft | 367 kts | 258° |
| 2026-05-06 22:31 | 32.12549 | -104.41640 | 27898 ft | 367 kts | 258° |
| 2026-05-06 22:31 | 32.12247 | -104.44630 | 27886 ft | 367 kts | 258° |
| 2026-05-06 22:31 | 32.11947 | -104.47622 | 27874 ft | 368 kts | 258° |
| 2026-05-06 22:32 | 32.11648 | -104.50618 | 27860 ft | 368 kts | 258° |
| 2026-05-06 22:32 | 32.11345 | -104.53624 | 27853 ft | 369 kts | 258° |
| 2026-05-06 22:32 | 32.11042 | -104.56623 | 27846 ft | 368 kts | 258° |
| 2026-05-06 22:32 | 32.10736 | -104.59620 | 27845 ft | 368 kts | 258° |
| 2026-05-06 22:33 | 32.10428 | -104.62618 | 27850 ft | 368 kts | 258° |
| 2026-05-06 22:33 | 32.10120 | -104.65617 | 27867 ft | 368 kts | 258° |
| 2026-05-06 22:33 | 32.09813 | -104.68614 | 27874 ft | 369 kts | 258° |
| 2026-05-06 22:33 | 32.09505 | -104.71615 | 27872 ft | 368 kts | 258° |
| 2026-05-06 22:34 | 32.09197 | -104.74612 | 27872 ft | 368 kts | 258° |
| 2026-05-06 22:34 | 32.08888 | -104.77607 | 27873 ft | 368 kts | 258° |
| 2026-05-06 22:34 | 32.08578 | -104.80604 | 27870 ft | 368 kts | 258° |
| 2026-05-06 22:34 | 32.08268 | -104.83599 | 27870 ft | 368 kts | 258° |
| 2026-05-06 22:35 | 32.07958 | -104.86593 | 27869 ft | 368 kts | 258° |
| 2026-05-06 22:35 | 32.07645 | -104.89589 | 27866 ft | 368 kts | 258° |
| 2026-05-06 22:35 | 32.07329 | -104.92582 | 27864 ft | 368 kts | 258° |
| 2026-05-06 22:35 | 32.07015 | -104.95575 | 27878 ft | 369 kts | 259° |
| 2026-05-06 22:36 | 32.06700 | -104.98577 | 27869 ft | 369 kts | 259° |
| 2026-05-06 22:36 | 32.06386 | -105.01575 | 27904 ft | 369 kts | 259° |
| 2026-05-06 22:36 | 32.06071 | -105.04578 | 27891 ft | 369 kts | 258° |
| 2026-05-06 22:36 | 32.05752 | -105.07579 | 27886 ft | 369 kts | 258° |
| 2026-05-06 22:37 | 32.05434 | -105.10576 | 27882 ft | 369 kts | 258° |
| 2026-05-06 22:37 | 32.05117 | -105.13575 | 27886 ft | 368 kts | 258° |
| 2026-05-06 22:37 | 32.04799 | -105.16572 | 27867 ft | 368 kts | 258° |
| 2026-05-06 22:37 | 32.04476 | -105.19566 | 27875 ft | 368 kts | 258° |
| 2026-05-06 22:38 | 32.04153 | -105.22560 | 27865 ft | 368 kts | 258° |
| 2026-05-06 22:38 | 32.03837 | -105.25511 | 27866 ft | 368 kts | 258° |
| 2026-05-06 22:38 | 32.03516 | -105.28508 | 27861 ft | 368 kts | 258° |
| 2026-05-06 22:38 | 32.03192 | -105.31544 | 27862 ft | 369 kts | 258° |
| 2026-05-06 22:39 | 32.02872 | -105.34541 | 27861 ft | 369 kts | 258° |
| 2026-05-06 22:39 | 32.02550 | -105.37540 | 27859 ft | 369 kts | 258° |
| 2026-05-06 22:39 | 32.02224 | -105.40538 | 27859 ft | 369 kts | 258° |
| 2026-05-06 22:39 | 32.01898 | -105.43496 | 27858 ft | 369 kts | 258° |
| 2026-05-06 22:40 | 32.01569 | -105.46490 | 27859 ft | 369 kts | 258° |
| 2026-05-06 22:40 | 32.01241 | -105.49491 | 27855 ft | 369 kts | 258° |
| 2026-05-06 22:40 | 32.00914 | -105.52492 | 27857 ft | 369 kts | 258° |
| 2026-05-06 22:40 | 32.00587 | -105.55494 | 27860 ft | 369 kts | 258° |
| 2026-05-06 22:41 | 31.99930 | -105.61497 | 27891 ft | 369 kts | 258° |
| 2026-05-06 22:41 | 31.99601 | -105.64495 | 27888 ft | 370 kts | 258° |
| 2026-05-06 22:41 | 31.99269 | -105.67498 | 27885 ft | 370 kts | 258° |
| 2026-05-06 22:42 | 31.98936 | -105.70503 | 27884 ft | 370 kts | 258° |
| 2026-05-06 22:42 | 31.98784 | -105.73543 | 27886 ft | 375 kts | 266° |
| 2026-05-06 22:42 | 31.99003 | -105.76620 | 27884 ft | 378 kts | 269° |
| 2026-05-06 22:42 | 31.99255 | -105.79703 | 27883 ft | 378 kts | 269° |
| 2026-05-06 22:43 | 31.99505 | -105.82787 | 27891 ft | 378 kts | 269° |
| 2026-05-06 22:43 | 31.99752 | -105.85873 | 27907 ft | 378 kts | 269° |
| 2026-05-06 22:43 | 31.99999 | -105.88958 | 27900 ft | 379 kts | 269° |
| 2026-05-06 22:43 | 32.00245 | -105.92049 | 27893 ft | 379 kts | 269° |
| 2026-05-06 22:44 | 32.00489 | -105.95137 | 27902 ft | 379 kts | 269° |
| 2026-05-06 22:44 | 32.00733 | -105.98228 | 27918 ft | 379 kts | 269° |
| 2026-05-06 22:44 | 32.00973 | -106.01318 | 27906 ft | 379 kts | 269° |
| 2026-05-06 22:44 | 32.01212 | -106.04417 | 27919 ft | 379 kts | 269° |
| 2026-05-06 22:45 | 32.01450 | -106.07510 | 27925 ft | 379 kts | 269° |
| 2026-05-06 22:45 | 32.01690 | -106.10607 | 27930 ft | 379 kts | 269° |
| 2026-05-06 22:45 | 32.01931 | -106.13704 | 27937 ft | 380 kts | 269° |
| 2026-05-06 22:45 | 32.02174 | -106.16800 | 27940 ft | 380 kts | 269° |
| 2026-05-06 22:46 | 32.02414 | -106.19901 | 27952 ft | 380 kts | 269° |
| 2026-05-06 22:46 | 32.02650 | -106.22996 | 27978 ft | 380 kts | 269° |
| 2026-05-06 22:46 | 32.02887 | -106.26097 | 27984 ft | 380 kts | 269° |
| 2026-05-06 22:46 | 32.03122 | -106.29201 | 27985 ft | 380 kts | 269° |
| 2026-05-06 22:47 | 32.03358 | -106.32307 | 27992 ft | 380 kts | 269° |
| 2026-05-06 22:47 | 32.03591 | -106.35409 | 27998 ft | 380 kts | 268° |
| 2026-05-06 22:47 | 32.03825 | -106.38511 | 27995 ft | 380 kts | 269° |
| 2026-05-06 22:47 | 32.04057 | -106.41615 | 27996 ft | 380 kts | 268° |
| 2026-05-06 22:48 | 32.04287 | -106.44716 | 27989 ft | 380 kts | 268° |
| 2026-05-06 22:48 | 32.04517 | -106.47824 | 27977 ft | 380 kts | 268° |
| 2026-05-06 22:48 | 32.04748 | -106.50930 | 27967 ft | 380 kts | 269° |
| 2026-05-06 22:48 | 32.04980 | -106.54038 | 27980 ft | 381 kts | 269° |
| 2026-05-06 22:49 | 32.05212 | -106.57149 | 27991 ft | 381 kts | 269° |
| 2026-05-06 22:49 | 32.05670 | -106.63364 | 28007 ft | 381 kts | 268° |
| 2026-05-06 22:50 | 32.06126 | -106.69579 | 28010 ft | 380 kts | 269° |
| 2026-05-06 22:50 | 32.06603 | -106.75791 | 28002 ft | 381 kts | 269° |
| 2026-05-06 22:50 | 32.06882 | -106.78895 | 27995 ft | 381 kts | 270° |
| 2026-05-06 22:51 | 32.07173 | -106.81997 | 27984 ft | 381 kts | 270° |
| 2026-05-06 22:51 | 32.07470 | -106.85095 | 27988 ft | 381 kts | 270° |
| 2026-05-06 22:51 | 32.07762 | -106.88200 | 27994 ft | 381 kts | 270° |
| 2026-05-06 22:51 | 32.08049 | -106.91304 | 27997 ft | 381 kts | 270° |
| 2026-05-06 22:52 | 32.08330 | -106.94409 | 28007 ft | 380 kts | 269° |
| 2026-05-06 22:52 | 32.08883 | -107.00615 | 28013 ft | 381 kts | 269° |
| 2026-05-06 22:53 | 32.09423 | -107.06781 | 27989 ft | 381 kts | 269° |
| 2026-05-06 22:53 | 32.09696 | -107.09886 | 27975 ft | 381 kts | 269° |
| 2026-05-06 22:53 | 32.09973 | -107.12997 | 27961 ft | 381 kts | 269° |
| 2026-05-06 22:53 | 32.10248 | -107.16107 | 27947 ft | 381 kts | 269° |
| 2026-05-06 22:54 | 32.10521 | -107.19215 | 27933 ft | 382 kts | 269° |
| 2026-05-06 22:54 | 32.10792 | -107.22327 | 27919 ft | 382 kts | 269° |
| 2026-05-06 22:54 | 32.11061 | -107.25445 | 27901 ft | 382 kts | 269° |
| 2026-05-06 22:54 | 32.11332 | -107.28563 | 27886 ft | 382 kts | 269° |
| 2026-05-06 22:55 | 32.11603 | -107.31680 | 27889 ft | 382 kts | 269° |
| 2026-05-06 22:55 | 32.11872 | -107.34795 | 27910 ft | 382 kts | 269° |
| 2026-05-06 22:55 | 32.12140 | -107.37917 | 27926 ft | 382 kts | 269° |
| 2026-05-06 22:55 | 32.12408 | -107.41041 | 27939 ft | 383 kts | 269° |
| 2026-05-06 22:56 | 32.12677 | -107.44161 | 27960 ft | 383 kts | 269° |
| 2026-05-06 22:56 | 32.12946 | -107.47285 | 27972 ft | 383 kts | 269° |
| 2026-05-06 22:56 | 32.13213 | -107.50409 | 27985 ft | 383 kts | 269° |
| 2026-05-06 22:57 | 32.13740 | -107.56652 | 28014 ft | 383 kts | 269° |
| 2026-05-06 22:57 | 32.14265 | -107.62904 | 28021 ft | 383 kts | 269° |
| 2026-05-06 22:58 | 32.14789 | -107.69176 | 28051 ft | 384 kts | 269° |
| 2026-05-06 22:58 | 32.15315 | -107.75452 | 28065 ft | 384 kts | 269° |
| 2026-05-06 22:59 | 32.15835 | -107.81727 | 28055 ft | 384 kts | 269° |
| 2026-05-06 22:59 | 32.16348 | -107.87997 | 28044 ft | 384 kts | 269° |
| 2026-05-06 23:00 | 32.16859 | -107.94271 | 28016 ft | 384 kts | 269° |
| 2026-05-06 23:00 | 32.17373 | -108.00535 | 28000 ft | 383 kts | 269° |
| 2026-05-06 23:00 | 32.17630 | -108.03668 | 27990 ft | 383 kts | 269° |
| 2026-05-06 23:01 | 32.17883 | -108.06800 | 27969 ft | 383 kts | 269° |
| 2026-05-06 23:01 | 32.18134 | -108.09936 | 27944 ft | 384 kts | 269° |
| 2026-05-06 23:01 | 32.18384 | -108.13073 | 27937 ft | 384 kts | 269° |
| 2026-05-06 23:01 | 32.18631 | -108.16169 | 27931 ft | 384 kts | 269° |
| 2026-05-06 23:02 | 32.18879 | -108.19304 | 27932 ft | 384 kts | 269° |
| 2026-05-06 23:02 | 32.19126 | -108.22441 | 27931 ft | 384 kts | 269° |
| 2026-05-06 23:02 | 32.19373 | -108.25576 | 27933 ft | 384 kts | 269° |
| 2026-05-06 23:02 | 32.19622 | -108.28707 | 27938 ft | 383 kts | 269° |
| 2026-05-06 23:03 | 32.19870 | -108.31845 | 27958 ft | 383 kts | 269° |
| 2026-05-06 23:03 | 32.20115 | -108.34976 | 27989 ft | 383 kts | 269° |
| 2026-05-06 23:03 | 32.20359 | -108.38112 | 27996 ft | 384 kts | 269° |
| 2026-05-06 23:04 | 32.20848 | -108.44391 | 28012 ft | 384 kts | 269° |
| 2026-05-06 23:04 | 32.21335 | -108.50668 | 28030 ft | 384 kts | 269° |
| 2026-05-06 23:05 | 32.21819 | -108.56952 | 28042 ft | 384 kts | 269° |
| 2026-05-06 23:05 | 32.22298 | -108.63235 | 28059 ft | 385 kts | 269° |
| 2026-05-06 23:06 | 32.22770 | -108.69533 | 28060 ft | 385 kts | 269° |
| 2026-05-06 23:06 | 32.23242 | -108.75832 | 28056 ft | 386 kts | 269° |
| 2026-05-06 23:07 | 32.23717 | -108.82140 | 28037 ft | 385 kts | 269° |
| 2026-05-06 23:07 | 32.24183 | -108.88450 | 28013 ft | 386 kts | 269° |
| 2026-05-06 23:07 | 32.24417 | -108.91603 | 27999 ft | 386 kts | 269° |
| 2026-05-06 23:08 | 32.24648 | -108.94715 | 27984 ft | 386 kts | 269° |
| 2026-05-06 23:08 | 32.24880 | -108.97873 | 27968 ft | 386 kts | 269° |
| 2026-05-06 23:08 | 32.25110 | -109.01036 | 27950 ft | 387 kts | 269° |
| 2026-05-06 23:08 | 32.25343 | -109.04247 | 27936 ft | 387 kts | 269° |
| 2026-05-06 23:09 | 32.25572 | -109.07373 | 27925 ft | 387 kts | 269° |
| 2026-05-06 23:09 | 32.25801 | -109.10537 | 27908 ft | 388 kts | 269° |
| 2026-05-06 23:09 | 32.26028 | -109.13713 | 27911 ft | 388 kts | 269° |
| 2026-05-06 23:09 | 32.26257 | -109.16892 | 27911 ft | 388 kts | 269° |
| 2026-05-06 23:10 | 32.26483 | -109.20059 | 27920 ft | 388 kts | 269° |
| 2026-05-06 23:10 | 32.26708 | -109.23236 | 27918 ft | 388 kts | 269° |
| 2026-05-06 23:10 | 32.26933 | -109.26411 | 27915 ft | 388 kts | 269° |
| 2026-05-06 23:10 | 32.27150 | -109.29586 | 27910 ft | 388 kts | 268° |
| 2026-05-06 23:11 | 32.27360 | -109.32762 | 27915 ft | 388 kts | 268° |
| 2026-05-06 23:11 | 32.27567 | -109.35947 | 27926 ft | 389 kts | 268° |
| 2026-05-06 23:11 | 32.27772 | -109.39131 | 27925 ft | 389 kts | 268° |
| 2026-05-06 23:11 | 32.27978 | -109.42319 | 27921 ft | 389 kts | 269° |
| 2026-05-06 23:12 | 32.28186 | -109.45508 | 27927 ft | 389 kts | 268° |
| 2026-05-06 23:12 | 32.28390 | -109.48698 | 27944 ft | 389 kts | 268° |
| 2026-05-06 23:12 | 32.28589 | -109.51891 | 27934 ft | 390 kts | 268° |
| 2026-05-06 23:12 | 32.28790 | -109.55091 | 27931 ft | 391 kts | 268° |
| 2026-05-06 23:13 | 32.28991 | -109.58290 | 27921 ft | 390 kts | 268° |
| 2026-05-06 23:13 | 32.29192 | -109.61490 | 27926 ft | 391 kts | 268° |
| 2026-05-06 23:13 | 32.29393 | -109.64697 | 27929 ft | 392 kts | 269° |
| 2026-05-06 23:13 | 32.29594 | -109.67902 | 27927 ft | 391 kts | 268° |
| 2026-05-06 23:14 | 32.29796 | -109.71113 | 27939 ft | 392 kts | 269° |
| 2026-05-06 23:14 | 32.29999 | -109.74325 | 27955 ft | 392 kts | 269° |
| 2026-05-06 23:14 | 32.30198 | -109.77538 | 27956 ft | 393 kts | 268° |
| 2026-05-06 23:14 | 32.30395 | -109.80764 | 27948 ft | 393 kts | 269° |
| 2026-05-06 23:15 | 32.30592 | -109.83989 | 27947 ft | 393 kts | 269° |
| 2026-05-06 23:15 | 32.30788 | -109.87215 | 27944 ft | 394 kts | 269° |
| 2026-05-06 23:15 | 32.30986 | -109.90440 | 27940 ft | 394 kts | 269° |
| 2026-05-06 23:15 | 32.31186 | -109.93679 | 27740 ft | 395 kts | 269° |
| 2026-05-06 23:16 | 32.31384 | -109.96931 | 27489 ft | 398 kts | 269° |
| 2026-05-06 23:16 | 32.31577 | -110.00192 | 27246 ft | 400 kts | 269° |
| 2026-05-06 23:16 | 32.31770 | -110.03488 | 26936 ft | 402 kts | 269° |
| 2026-05-06 23:16 | 32.31964 | -110.06768 | 26135 ft | 398 kts | 270° |
| 2026-05-06 23:17 | 32.32158 | -110.10005 | 25360 ft | 393 kts | 271° |
| 2026-05-06 23:17 | 32.32313 | -110.13205 | 24794 ft | 384 kts | 269° |
| 2026-05-06 23:17 | 32.32311 | -110.16326 | 24329 ft | 380 kts | 266° |
| 2026-05-06 23:17 | 32.32211 | -110.19446 | 23560 ft | 380 kts | 266° |
| 2026-05-06 23:18 | 32.32074 | -110.22577 | 22700 ft | 381 kts | 266° |
| 2026-05-06 23:18 | 32.31943 | -110.25691 | 21944 ft | 379 kts | 266° |
| 2026-05-06 23:18 | 32.31833 | -110.28803 | 21184 ft | 379 kts | 266° |
| 2026-05-06 23:18 | 32.31747 | -110.31916 | 20439 ft | 379 kts | 267° |
| 2026-05-06 23:19 | 32.31700 | -110.33976 | 19948 ft | 379 kts | 268° |
| 2026-05-06 23:19 | 32.31642 | -110.37091 | 19236 ft | 380 kts | 268° |
| 2026-05-06 23:19 | 32.31589 | -110.40212 | 18541 ft | 379 kts | 268° |
| 2026-05-06 23:19 | 32.31514 | -110.44332 | 17601 ft | 377 kts | 268° |
| 2026-05-06 23:20 | 32.31456 | -110.47386 | 17081 ft | 368 kts | 268° |
| 2026-05-06 23:20 | 32.31397 | -110.50393 | 16421 ft | 363 kts | 268° |
| 2026-05-06 23:20 | 32.31356 | -110.52402 | 15974 ft | 361 kts | 268° |
| 2026-05-06 23:20 | 32.31291 | -110.55355 | 15304 ft | 359 kts | 268° |
| 2026-05-06 23:21 | 32.31228 | -110.58302 | 14614 ft | 357 kts | 268° |
| 2026-05-06 23:21 | 32.31162 | -110.61237 | 13915 ft | 357 kts | 268° |
| 2026-05-06 23:21 | 32.31100 | -110.63968 | 13177 ft | 357 kts | 268° |
| 2026-05-06 23:21 | 32.31031 | -110.66895 | 12426 ft | 356 kts | 268° |
| 2026-05-06 23:22 | 32.30963 | -110.69816 | 11681 ft | 355 kts | 269° |
| 2026-05-06 23:22 | 32.30896 | -110.72705 | 11281 ft | 344 kts | 269° |
| 2026-05-06 23:22 | 32.30833 | -110.75423 | 11166 ft | 327 kts | 269° |
| 2026-05-06 23:22 | 32.30773 | -110.78044 | 11045 ft | 312 kts | 269° |
| 2026-05-06 23:23 | 32.30720 | -110.80328 | 10856 ft | 304 kts | 269° |
| 2026-05-06 23:23 | 32.30662 | -110.82804 | 10540 ft | 299 kts | 268° |
| 2026-05-06 23:23 | 32.30602 | -110.85237 | 10386 ft | 295 kts | 268° |
| 2026-05-06 23:23 | 32.30542 | -110.87662 | 10177 ft | 295 kts | 268° |
| 2026-05-06 23:24 | 32.30481 | -110.90070 | 10098 ft | 290 kts | 268° |
| 2026-05-06 23:24 | 32.30423 | -110.92405 | 9988 ft | 279 kts | 268° |
| 2026-05-06 23:24 | 32.30366 | -110.94699 | 9535 ft | 282 kts | 268° |
| 2026-05-06 23:24 | 32.30330 | -110.97020 | 9076 ft | 283 kts | 273° |
| 2026-05-06 23:25 | 32.30715 | -110.99294 | 8642 ft | 283 kts | 291° |
| 2026-05-06 23:25 | 32.31608 | -111.01323 | 8211 ft | 272 kts | 303° |
| 2026-05-06 23:25 | 32.32549 | -111.03111 | 7818 ft | 262 kts | 302° |
| 2026-05-06 23:25 | 32.33490 | -111.04913 | 7427 ft | 253 kts | 303° |
| 2026-05-06 23:26 | 32.34396 | -111.06652 | 7053 ft | 244 kts | 303° |
| 2026-05-06 23:26 | 32.35267 | -111.08328 | 6702 ft | 235 kts | 302° |
| 2026-05-06 23:26 | 32.36113 | -111.09958 | 6358 ft | 232 kts | 303° |
| 2026-05-06 23:26 | 32.36960 | -111.11592 | 5978 ft | 233 kts | 303° |
| 2026-05-06 23:27 | 32.37809 | -111.13232 | 5623 ft | 234 kts | 303° |
| 2026-05-06 23:27 | 32.38664 | -111.14885 | 5265 ft | 237 kts | 303° |
| 2026-05-06 23:27 | 32.39525 | -111.16546 | 4893 ft | 233 kts | 303° |
| 2026-05-06 23:27 | 32.40352 | -111.18142 | 4542 ft | 223 kts | 303° |
| 2026-05-06 23:28 | 32.41143 | -111.19671 | 4218 ft | 213 kts | 303° |
| 2026-05-06 23:28 | 32.41889 | -111.21114 | 3993 ft | 199 kts | 304° |
| 2026-05-06 23:28 | 32.42601 | -111.22473 | 3800 ft | 191 kts | 306° |
| 2026-05-06 23:28 | 32.43475 | -111.23615 | 3601 ft | 183 kts | 317° |
| 2026-05-06 23:29 | 32.44341 | -111.24637 | 3402 ft | 169 kts | 316° |
| 2026-05-06 23:29 | 32.45127 | -111.25587 | 3258 ft | 154 kts | 316° |
| 2026-05-06 23:29 | 32.45831 | -111.26449 | 3129 ft | 139 kts | 315° |
| 2026-05-06 23:29 | 32.46489 | -111.27237 | 2944 ft | 130 kts | 317° |
| 2026-05-06 23:30 | 32.47135 | -111.27971 | 2793 ft | 128 kts | 317° |
| 2026-05-06 23:30 | 32.47761 | -111.28726 | 2623 ft | 128 kts | 315° |
| 2026-05-06 23:30 | 32.48391 | -111.29473 | 2496 ft | 128 kts | 315° |
| 2026-05-06 23:30 | 32.49019 | -111.30228 | 2343 ft | 129 kts | 315° |
| 2026-05-06 23:31 | 32.49658 | -111.30971 | 2159 ft | 129 kts | 316° |
| 2026-05-06 23:31 | 32.50290 | -111.31723 | 1963 ft | 129 kts | 315° |
| 2026-05-06 23:31 | 32.50872 | -111.32404 | 1894 ft | 86 kts | 315° |
| 2026-05-06 23:31 | 32.51215 | -111.32806 | 1892 ft | 56 kts | 315° |
| 2026-05-06 23:32 | 32.51477 | -111.33112 | 1893 ft | 50 kts | 315° |
| 2026-05-06 23:32 | 32.51629 | -111.33278 | 1886 ft | 19 kts | 346° |
| 2026-05-06 23:32 | 32.51738 | -111.33249 | 1886 ft | 16 kts | 72° |
| 2026-05-06 23:32 | 32.51693 | -111.33130 | 1889 ft | 18 kts | 141° |
| 2026-05-06 23:33 | 32.51593 | -111.33020 | 1890 ft | 22 kts | 134° |
| 2026-05-06 23:33 | 32.51486 | -111.32892 | 1897 ft | 23 kts | 135° |
| 2026-05-06 23:33 | 32.51372 | -111.32756 | 1888 ft | 25 kts | 135° |
| 2026-05-06 23:33 | 32.51248 | -111.32606 | 1896 ft | 24 kts | 133° |
| 2026-05-06 23:34 | 32.51122 | -111.32456 | 1890 ft | 22 kts | 134° |
| 2026-05-06 23:34 | 32.51022 | -111.32334 | 1890 ft | 23 kts | 134° |
| 2026-05-06 23:34 | 32.50904 | -111.32193 | 1899 ft | 24 kts | 135° |
| 2026-05-06 23:34 | 32.50784 | -111.32054 | 1901 ft | 24 kts | 135° |
| 2026-05-06 23:35 | 32.50688 | -111.31940 | 1894 ft | 17 kts | 134° |
| 2026-05-06 23:35 | 32.50615 | -111.31853 | 1899 ft | 14 kts | 135° |
| 2026-05-06 23:35 | 32.50629 | -111.31802 | 1900 ft | 7 kts | 312° |
| 2026-05-06 23:35 | 32.50659 | -111.31847 | 1900 ft | 0 kts | 315° |